Погода Вьедмана неделю

Рио-Негро, Аргентина

28 января-03 февраля
  • 28января
    Сегодня
    +20°
    +33°
    Ясно и безоблачно
    ВремяПогодаТемператураВлажностьДавлениеВетер, м/сВероятность осадков
    00:00Ясно и безоблачно+17°C81 %760 мм2.5 м/с5 %
    03:00Ясно и безоблачно+16°C96 %759 мм2.8 м/с5 %
    06:00Ясно и безоблачно+15°C97 %759 мм2.3 м/с5 %
    09:00Ясно и безоблачно+22°C73 %760 мм3.6 м/с5 %
    12:00Ясно и безоблачно+30°C36 %760 мм4.3 м/с5 %
    15:00Ясно и безоблачно+33°C21 %759 мм5.0 м/с5 %
    18:00Ясно и безоблачно+29°C39 %759 мм5.9 м/с5 %
    21:00Ясно и безоблачно+24°C61 %760 мм3.2 м/с5 %
  • 29января
    Воскресенье
    +26°
    +41°
    Ясно и безоблачно
    ВремяПогодаТемператураВлажностьДавлениеВетер, м/сВероятность осадков
    00:00Ясно и безоблачно+22°C68 %760 мм3.0 м/с5 %
    03:00Ясно и безоблачно+21°C59 %760 мм3.2 м/с5 %
    06:00Ясно и безоблачно+21°C50 %760 мм3.8 м/с5 %
    09:00Ясно и безоблачно+28°C38 %760 мм5.8 м/с5 %
    12:00Ясно и безоблачно+37°C20 %759 мм7.3 м/с5 %
    15:00Ясно и безоблачно+40°C15 %757 мм7.6 м/с5 %
    18:00Ясно и безоблачно+40°C20 %755 мм8.9 м/с5 %
    21:00Ясно и безоблачно+30°C51 %756 мм7.0 м/с5 %
  • 30января
    Понедельник
    +15°
    +36°
    Облачно с прояснениями
    ВремяПогодаТемператураВлажностьДавлениеВетер, м/сВероятность осадков
    00:00Ясно и безоблачно+27°C61 %756 мм5.0 м/с5 %
    03:00Ясно и безоблачно+27°C50 %755 мм4.9 м/с5 %
    06:00Ясно и безоблачно+26°C58 %754 мм5.5 м/с5 %
    09:00Ясно и безоблачно+30°C54 %755 мм7.8 м/с20 %
    12:00Практически безоблачно+35°C32 %753 мм7.4 м/с14 %
    15:00Облачно с прояснениями+30°C36 %753 мм6.5 м/с21 %
    18:00Облачно с прояснениями+23°C56 %754 мм8.2 м/с42 %
    21:00Пасмурно, дожди с грозами+21°C86 %756 мм6.9 м/с52 %
  • 31января
    Вторник
    +12°
    +21°
    Практически безоблачно
    ВремяПогодаТемператураВлажностьДавлениеВетер, м/сВероятность осадков
    00:00Небольшая облачность, возможен дождь с грозой+18°C86 %757 мм5.8 м/с61 %
    03:00Пасмурно, дожди с грозами+17°C86 %757 мм5.8 м/с59 %
    06:00Пасмурно, небольшой дождь+16°C84 %758 мм6.5 м/с52 %
    09:00Практически безоблачно+17°C67 %759 мм8.1 м/с34 %
    12:00Практически безоблачно+19°C54 %760 мм8.6 м/с26 %
    15:00Практически безоблачно+21°C51 %760 мм8.3 м/с27 %
    18:00Практически безоблачно+19°C56 %760 мм8.0 м/с13 %
    21:00Практически безоблачно+17°C68 %761 мм4.7 м/с18 %
Мы используем cookies
Соглашаюсь